Time;durP1;ratioP1;P1;durP2;ratioP2;P2;SDS_P1;SDS_P2;PMS_P1;PMS_P2;Temp;Humidity;BMP_temperature;BMP_pressure;BME280_temperature;BME280_humidity;BME280_pressure;Samples;Min_cycle;Max_cycle;Signal;HPM_P1;HPM_P2
2021/09/26 00:01:58;;;;;;;12.45;10.20;;;;;;;;;;5049121;28;20140;-46
2021/09/26 00:04:25;;;;;;;11.68;9.68;;;;;;;;;;5052002;28;20083;-46
2021/09/26 00:06:52;;;;;;;14.35;11.20;;;;;;;;;;5052575;28;20079;-46
2021/09/26 00:09:19;;;;;;;13.45;10.10;;;;;;;;;;5045376;28;20119;-48
2021/09/26 00:11:46;;;;;;;14.65;9.88;;;;;;;;;;5053317;28;20059;-44
2021/09/26 00:14:13;;;;;;;13.73;10.82;;;;;;;;;;5050698;28;20041;-45
2021/09/26 00:16:39;;;;;;;13.80;10.05;;;;;;;;;;5052378;28;20068;-45
2021/09/26 00:19:06;;;;;;;12.50;10.82;;;;;;;;;;5033343;28;20057;-45
2021/09/26 00:21:33;;;;;;;14.73;10.48;;;;;;;;;;5047493;28;20056;-47
2021/09/26 00:24:00;;;;;;;13.07;11.00;;;;;;;;;;5052257;28;20429;-45
2021/09/26 00:26:27;;;;;;;14.77;11.75;;;;;;;;;;5046834;28;20094;-45
2021/09/26 00:28:54;;;;;;;13.07;10.18;;;;;;;;;;5046881;28;20132;-46
2021/09/26 00:31:21;;;;;;;14.32;11.50;;;;;;;;;;5034729;28;20048;-46
2021/09/26 00:33:47;;;;;;;12.27;10.45;;;;;;;;;;5052034;28;20075;-46
2021/09/26 00:36:14;;;;;;;12.57;10.32;;;;;;;;;;5051063;28;20398;-45
2021/09/26 00:38:41;;;;;;;12.88;9.48;;;;;;;;;;5045099;28;20045;-46
2021/09/26 00:41:08;;;;;;;12.45;8.93;;;;;;;;;;5052150;28;20053;-47
2021/09/26 00:43:36;;;;;;;11.38;9.48;;;;;;;;;;5050972;28;20044;-46
2021/09/26 00:46:04;;;;;;;11.70;9.10;;;;;;;;;;5045764;28;20139;-47
2021/09/26 00:48:31;;;;;;;11.18;9.15;;;;;;;;;;5033408;28;20050;-50
2021/09/26 00:50:58;;;;;;;12.93;8.80;;;;;;;;;;5051966;28;20502;-44
2021/09/26 00:53:25;;;;;;;11.35;8.73;;;;;;;;;;5049706;28;20045;-48
2021/09/26 00:55:57;;;;;;;10.65;8.13;;;;;;;;;;5042401;28;20128;-44
2021/09/26 00:58:25;;;;;;;10.75;9.27;;;;;;;;;;5050382;28;20036;-48
2021/09/26 01:00:51;;;;;;;10.23;8.10;;;;;;;;;;5050774;28;20675;-49
2021/09/26 01:03:18;;;;;;;11.48;7.65;;;;;;;;;;5050120;28;20049;-47
2021/09/26 01:05:49;;;;;;;11.35;8.32;;;;;;;;;;5052193;28;20043;-50
2021/09/26 01:08:24;;;;;;;9.43;7.50;;;;;;;;;;5041800;28;20473;-47
2021/09/26 01:11:00;;;;;;;9.38;7.68;;;;;;;;;;5039340;28;20462;-45
2021/09/26 01:13:26;;;;;;;9.55;6.82;;;;;;;;;;5051028;28;20140;-48
2021/09/26 01:15:57;;;;;;;10.52;7.05;;;;;;;;;;5049208;28;20047;-46
2021/09/26 01:18:24;;;;;;;9.10;6.40;;;;;;;;;;5043747;28;20072;-46
2021/09/26 01:20:51;;;;;;;10.27;8.65;;;;;;;;;;5050695;28;20126;-44
2021/09/26 01:23:20;;;;;;;9.48;7.47;;;;;;;;;;5051501;28;20045;-44
2021/09/26 01:26:06;;;;;;;8.15;5.82;;;;;;;;;;5043906;28;20046;-45
2021/09/26 01:28:41;;;;;;;8.75;5.25;;;;;;;;;;5048564;28;20045;-46
2021/09/26 01:31:11;;;;;;;6.32;5.50;;;;;;;;;;5056096;28;21685;-45
2021/09/26 01:33:43;;;;;;;9.30;6.20;;;;;;;;;;5031336;28;20045;-46
2021/09/26 01:36:21;;;;;;;7.10;5.57;;;;;;;;;;5046877;28;20163;-49
2021/09/26 01:38:53;;;;;;;7.55;5.90;;;;;;;;;;5046961;28;20085;-45
2021/09/26 01:41:29;;;;;;;8.55;5.45;;;;;;;;;;5050055;28;20045;-46
2021/09/26 01:43:57;;;;;;;6.30;4.90;;;;;;;;;;5049988;28;20556;-45
2021/09/26 01:46:29;;;;;;;6.75;5.50;;;;;;;;;;5048584;28;20405;-47
2021/09/26 01:48:56;;;;;;;5.88;4.90;;;;;;;;;;5050477;28;20052;-49
2021/09/26 01:51:24;;;;;;;5.97;5.05;;;;;;;;;;5050083;28;20045;-49
2021/09/26 01:53:51;;;;;;;5.95;4.80;;;;;;;;;;5050844;28;20045;-45
2021/09/26 01:56:17;;;;;;;6.65;5.03;;;;;;;;;;5048390;28;20457;-50
2021/09/26 01:58:44;;;;;;;6.45;4.90;;;;;;;;;;5046285;28;20068;-43
2021/09/26 02:01:13;;;;;;;6.57;4.68;;;;;;;;;;5031581;28;20491;-44
2021/09/26 02:03:40;;;;;;;5.43;4.57;;;;;;;;;;5038171;28;20056;-43
2021/09/26 02:06:07;;;;;;;7.20;4.57;;;;;;;;;;5050567;28;20053;-43
2021/09/26 02:08:34;;;;;;;6.07;4.55;;;;;;;;;;5038969;28;20059;-45
2021/09/26 02:11:01;;;;;;;5.80;4.50;;;;;;;;;;5051112;28;20131;-45
2021/09/26 02:13:29;;;;;;;6.50;4.93;;;;;;;;;;5049563;28;20037;-45
2021/09/26 02:15:56;;;;;;;8.80;4.97;;;;;;;;;;5045424;28;20049;-46
2021/09/26 02:18:23;;;;;;;6.05;4.65;;;;;;;;;;5031177;28;20050;-45
2021/09/26 02:20:50;;;;;;;5.50;4.47;;;;;;;;;;5030881;28;20055;-44
2021/09/26 02:23:17;;;;;;;5.95;4.90;;;;;;;;;;5030466;28;20132;-46
2021/09/26 02:25:44;;;;;;;5.47;4.75;;;;;;;;;;5041049;28;20140;-45
2021/09/26 02:28:11;;;;;;;7.68;5.00;;;;;;;;;;5049925;28;20045;-44
2021/09/26 02:30:39;;;;;;;6.85;4.88;;;;;;;;;;5040118;28;20110;-47
2021/09/26 02:33:06;;;;;;;5.75;4.32;;;;;;;;;;5049193;28;20207;-44
2021/09/26 02:35:33;;;;;;;7.20;4.55;;;;;;;;;;5048165;28;20048;-43
2021/09/26 02:38:00;;;;;;;6.75;4.50;;;;;;;;;;5035874;28;20133;-44
2021/09/26 02:40:27;;;;;;;8.93;4.93;;;;;;;;;;5037225;28;20043;-44
2021/09/26 02:42:56;;;;;;;6.65;4.50;;;;;;;;;;5049800;28;20525;-45
2021/09/26 02:45:31;;;;;;;7.47;4.60;;;;;;;;;;5048444;28;20045;-45
2021/09/26 02:48:02;;;;;;;5.93;4.60;;;;;;;;;;5049691;28;20399;-44
2021/09/26 02:50:29;;;;;;;7.25;4.47;;;;;;;;;;5049778;28;20041;-48
2021/09/26 02:52:56;;;;;;;5.57;4.50;;;;;;;;;;5048705;28;20052;-48
2021/09/26 02:55:24;;;;;;;9.20;4.70;;;;;;;;;;5036670;28;20064;-45
2021/09/26 02:57:51;;;;;;;6.90;4.47;;;;;;;;;;5050447;28;20048;-46
2021/09/26 03:00:18;;;;;;;6.05;4.53;;;;;;;;;;5048043;28;20052;-46
2021/09/26 03:02:45;;;;;;;6.30;4.53;;;;;;;;;;5050640;28;20060;-44
2021/09/26 03:05:12;;;;;;;7.47;4.38;;;;;;;;;;5047803;28;20091;-44
2021/09/26 03:07:39;;;;;;;6.88;4.70;;;;;;;;;;5049212;28;20052;-47
2021/09/26 03:10:06;;;;;;;6.65;4.65;;;;;;;;;;5042904;28;20059;-49
2021/09/26 03:12:33;;;;;;;6.43;4.43;;;;;;;;;;5050636;28;20048;-47
2021/09/26 03:15:00;;;;;;;5.90;4.65;;;;;;;;;;5051552;28;20052;-44
2021/09/26 03:17:29;;;;;;;6.57;4.55;;;;;;;;;;5038351;28;20041;-48
2021/09/26 03:19:56;;;;;;;6.30;4.95;;;;;;;;;;5053458;28;20056;-47
2021/09/26 03:22:23;;;;;;;8.85;4.90;;;;;;;;;;5051935;28;20052;-46
2021/09/26 03:24:50;;;;;;;6.30;4.38;;;;;;;;;;5053767;28;20055;-48
2021/09/26 03:27:17;;;;;;;6.05;4.60;;;;;;;;;;5047222;28;20052;-45
2021/09/26 03:29:43;;;;;;;6.65;4.40;;;;;;;;;;5051092;28;20041;-45
2021/09/26 03:32:10;;;;;;;7.75;5.00;;;;;;;;;;5054272;28;20041;-47
2021/09/26 03:34:38;;;;;;;6.88;4.95;;;;;;;;;;5052617;28;20037;-45
2021/09/26 03:37:05;;;;;;;6.32;4.60;;;;;;;;;;5051691;28;20033;-45
2021/09/26 03:39:32;;;;;;;6.22;4.55;;;;;;;;;;5053224;28;20045;-44
2021/09/26 03:41:58;;;;;;;6.28;4.95;;;;;;;;;;5053027;28;20432;-47
2021/09/26 03:44:25;;;;;;;6.38;4.38;;;;;;;;;;5052545;28;20045;-47
2021/09/26 03:46:52;;;;;;;7.60;4.88;;;;;;;;;;5051810;28;20457;-47
2021/09/26 03:49:19;;;;;;;9.90;5.30;;;;;;;;;;5053464;28;20057;-45
2021/09/26 03:51:48;;;;;;;6.55;4.78;;;;;;;;;;5053109;28;20045;-45
2021/09/26 03:54:16;;;;;;;6.03;5.07;;;;;;;;;;5052065;28;20489;-44
2021/09/26 03:56:43;;;;;;;7.38;4.90;;;;;;;;;;5038284;28;20053;-46
2021/09/26 03:59:10;;;;;;;6.93;5.10;;;;;;;;;;5037029;28;20410;-48
2021/09/26 04:01:38;;;;;;;7.45;4.70;;;;;;;;;;5053396;28;20055;-46
2021/09/26 04:04:05;;;;;;;6.65;5.32;;;;;;;;;;5051696;28;20132;-48
2021/09/26 04:06:32;;;;;;;6.22;4.68;;;;;;;;;;5053403;28;20061;-47
2021/09/26 04:08:59;;;;;;;7.43;4.80;;;;;;;;;;5050822;28;20049;-47
2021/09/26 04:11:25;;;;;;;7.25;5.03;;;;;;;;;;5052800;28;20048;-44
2021/09/26 04:13:52;;;;;;;8.20;5.00;;;;;;;;;;5051010;28;20040;-47
2021/09/26 04:16:19;;;;;;;5.78;4.72;;;;;;;;;;5053492;28;20107;-43
2021/09/26 04:18:46;;;;;;;7.22;4.97;;;;;;;;;;5051014;28;20061;-46
2021/09/26 04:21:14;;;;;;;6.78;4.93;;;;;;;;;;5052590;28;20072;-45
2021/09/26 04:23:41;;;;;;;8.05;5.22;;;;;;;;;;5050529;28;20049;-46
2021/09/26 04:26:08;;;;;;;7.95;5.03;;;;;;;;;;5052121;28;20045;-45
2021/09/26 04:28:35;;;;;;;8.05;4.90;;;;;;;;;;5048862;28;20409;-47
2021/09/26 04:31:02;;;;;;;8.25;4.90;;;;;;;;;;5033090;28;20064;-46
2021/09/26 04:33:29;;;;;;;7.82;5.05;;;;;;;;;;5043267;28;20132;-46
2021/09/26 04:35:55;;;;;;;10.85;5.10;;;;;;;;;;5053085;28;20391;-45
2021/09/26 04:38:22;;;;;;;6.97;4.78;;;;;;;;;;5049126;28;20045;-46
2021/09/26 04:40:49;;;;;;;7.97;5.15;;;;;;;;;;5051190;28;20079;-47
2021/09/26 04:43:16;;;;;;;7.40;5.28;;;;;;;;;;5051217;28;20048;-44
2021/09/26 04:45:42;;;;;;;7.65;5.15;;;;;;;;;;5051512;28;20049;-43
2021/09/26 04:48:09;;;;;;;8.52;5.25;;;;;;;;;;5051383;28;20045;-45
2021/09/26 04:50:36;;;;;;;5.97;4.63;;;;;;;;;;5052664;28;20041;-47
2021/09/26 04:53:03;;;;;;;8.25;5.20;;;;;;;;;;5050356;28;20043;-44
2021/09/26 04:55:30;;;;;;;6.53;5.07;;;;;;;;;;5050154;28;20033;-48
2021/09/26 04:57:57;;;;;;;6.22;4.70;;;;;;;;;;5052818;28;20063;-45
2021/09/26 05:00:24;;;;;;;8.48;5.55;;;;;;;;;;5038656;28;20394;-45
2021/09/26 05:02:51;;;;;;;6.50;4.93;;;;;;;;;;5051653;28;20055;-47
2021/09/26 05:05:18;;;;;;;7.22;4.88;;;;;;;;;;5052009;28;20079;-45
2021/09/26 05:07:44;;;;;;;7.05;5.00;;;;;;;;;;5038484;28;20053;-44
2021/09/26 05:10:11;;;;;;;7.95;4.90;;;;;;;;;;5052099;28;20049;-43
2021/09/26 05:12:38;;;;;;;9.30;5.22;;;;;;;;;;5051970;28;20045;-45
2021/09/26 05:15:05;;;;;;;6.70;5.22;;;;;;;;;;5046812;28;20045;-47
2021/09/26 05:17:32;;;;;;;6.15;4.38;;;;;;;;;;5050116;28;20098;-47
2021/09/26 05:19:59;;;;;;;7.32;5.45;;;;;;;;;;5052063;28;20040;-49
2021/09/26 05:22:26;;;;;;;6.47;4.72;;;;;;;;;;5050308;28;20052;-47
2021/09/26 05:24:53;;;;;;;8.95;5.43;;;;;;;;;;5034738;28;20041;-46
2021/09/26 05:27:20;;;;;;;7.30;4.93;;;;;;;;;;5049434;28;20462;-46
2021/09/26 05:29:47;;;;;;;7.68;4.70;;;;;;;;;;5038217;28;20049;-46
2021/09/26 05:32:13;;;;;;;6.85;5.25;;;;;;;;;;5030411;28;20045;-47
2021/09/26 05:34:41;;;;;;;9.15;4.95;;;;;;;;;;5045549;28;20041;-44
2021/09/26 05:37:07;;;;;;;7.50;5.30;;;;;;;;;;5050327;28;20045;-44
2021/09/26 05:39:34;;;;;;;6.80;4.85;;;;;;;;;;5045619;28;20125;-43
2021/09/26 05:42:03;;;;;;;8.00;5.07;;;;;;;;;;5049752;28;20049;-44
2021/09/26 05:44:31;;;;;;;6.10;4.53;;;;;;;;;;5049616;28;20044;-44
2021/09/26 05:46:57;;;;;;;9.18;5.00;;;;;;;;;;5050998;28;20136;-44
2021/09/26 05:49:24;;;;;;;6.07;4.80;;;;;;;;;;5044695;28;20049;-42
2021/09/26 05:51:51;;;;;;;7.65;4.90;;;;;;;;;;5050887;28;20128;-45
2021/09/26 05:54:19;;;;;;;7.55;4.60;;;;;;;;;;5049580;28;20495;-42
2021/09/26 05:56:46;;;;;;;8.77;4.38;;;;;;;;;;5047853;28;20045;-42
2021/09/26 05:59:14;;;;;;;6.32;4.63;;;;;;;;;;5043244;28;20457;-42
2021/09/26 06:01:41;;;;;;;5.72;4.38;;;;;;;;;;5037419;28;20041;-44
2021/09/26 06:04:08;;;;;;;5.80;4.15;;;;;;;;;;5050374;28;20055;-42
2021/09/26 06:06:34;;;;;;;5.07;4.22;;;;;;;;;;5049527;28;20165;-42
2021/09/26 06:09:01;;;;;;;5.78;4.20;;;;;;;;;;5045628;28;20497;-44
2021/09/26 06:11:28;;;;;;;6.22;4.05;;;;;;;;;;5034706;28;20119;-44
2021/09/26 06:13:55;;;;;;;6.88;4.05;;;;;;;;;;5049264;28;20041;-42
2021/09/26 06:16:22;;;;;;;7.30;4.43;;;;;;;;;;5032597;28;20065;-44
2021/09/26 06:18:48;;;;;;;7.32;4.88;;;;;;;;;;5049320;28;20094;-45
2021/09/26 06:21:15;;;;;;;6.32;4.70;;;;;;;;;;5049017;28;20102;-44
2021/09/26 06:23:42;;;;;;;8.55;5.15;;;;;;;;;;5049078;28;20044;-44
2021/09/26 06:26:09;;;;;;;6.22;4.28;;;;;;;;;;5049494;28;20075;-41
2021/09/26 06:28:35;;;;;;;7.30;4.18;;;;;;;;;;5048433;28;20059;-43
2021/09/26 06:31:02;;;;;;;8.30;4.93;;;;;;;;;;5046469;28;20430;-45
2021/09/26 06:33:29;;;;;;;5.45;3.80;;;;;;;;;;5050581;28;20055;-42
2021/09/26 06:35:57;;;;;;;8.25;4.40;;;;;;;;;;5049623;28;20140;-43
2021/09/26 06:38:24;;;;;;;7.88;4.60;;;;;;;;;;5049082;28;20514;-43
2021/09/26 06:40:51;;;;;;;8.15;4.10;;;;;;;;;;5045593;28;20425;-43
2021/09/26 06:43:18;;;;;;;6.38;4.43;;;;;;;;;;5047544;28;20044;-42
2021/09/26 06:45:45;;;;;;;6.90;4.72;;;;;;;;;;5050079;28;20649;-42
2021/09/26 06:48:12;;;;;;;9.75;4.70;;;;;;;;;;5045200;28;20141;-43
2021/09/26 06:50:38;;;;;;;9.10;4.40;;;;;;;;;;5053443;28;20041;-43
2021/09/26 06:53:05;;;;;;;7.30;4.20;;;;;;;;;;5052162;28;20047;-47
2021/09/26 06:55:32;;;;;;;8.95;4.05;;;;;;;;;;5049178;28;20494;-43
2021/09/26 06:57:59;;;;;;;6.68;4.32;;;;;;;;;;5037272;28;20041;-44
2021/09/26 07:00:25;;;;;;;6.30;4.32;;;;;;;;;;5038801;28;20486;-48
2021/09/26 07:02:52;;;;;;;7.40;4.25;;;;;;;;;;5051722;28;20478;-44
2021/09/26 07:05:21;;;;;;;7.20;4.32;;;;;;;;;;5053129;28;20471;-42
2021/09/26 07:07:49;;;;;;;6.80;4.30;;;;;;;;;;5038920;28;20057;-44
2021/09/26 07:10:15;;;;;;;8.75;4.80;;;;;;;;;;5039673;28;20036;-42
2021/09/26 07:12:42;;;;;;;6.45;3.75;;;;;;;;;;5049887;28;20337;-44
2021/09/26 07:15:11;;;;;;;7.53;3.80;;;;;;;;;;5051336;28;20072;-43
2021/09/26 07:17:37;;;;;;;10.45;4.00;;;;;;;;;;5040502;28;20045;-44
2021/09/26 07:20:05;;;;;;;6.20;4.00;;;;;;;;;;5051458;28;20055;-46
2021/09/26 07:22:32;;;;;;;6.30;3.70;;;;;;;;;;5052795;28;20367;-42
2021/09/26 07:24:58;;;;;;;8.18;3.60;;;;;;;;;;5050625;28;20068;-48
2021/09/26 07:27:26;;;;;;;6.45;3.60;;;;;;;;;;5049309;28;20479;-44
2021/09/26 07:29:54;;;;;;;6.07;4.00;;;;;;;;;;5042786;28;20102;-43
2021/09/26 07:32:21;;;;;;;8.13;4.00;;;;;;;;;;5053732;28;20041;-46
2021/09/26 07:34:48;;;;;;;6.78;3.75;;;;;;;;;;5051985;28;20049;-42
2021/09/26 07:37:15;;;;;;;6.82;4.13;;;;;;;;;;5053742;28;20040;-43
2021/09/26 07:39:41;;;;;;;5.85;3.35;;;;;;;;;;5043780;28;20067;-46
2021/09/26 07:42:08;;;;;;;5.97;3.50;;;;;;;;;;5046621;28;20056;-48
2021/09/26 07:44:35;;;;;;;5.00;3.28;;;;;;;;;;5055793;28;20051;-43
2021/09/26 07:47:02;;;;;;;7.07;3.30;;;;;;;;;;5051737;28;21098;-48
2021/09/26 07:49:29;;;;;;;5.72;3.38;;;;;;;;;;5049238;28;20421;-48
2021/09/26 07:51:55;;;;;;;8.60;4.32;;;;;;;;;;5056522;28;20051;-46
2021/09/26 07:54:22;;;;;;;8.25;3.17;;;;;;;;;;5053114;28;20076;-46
2021/09/26 07:56:49;;;;;;;6.35;3.22;;;;;;;;;;5048365;28;20095;-46
2021/09/26 07:59:19;;;;;;;6.85;3.05;;;;;;;;;;5044701;28;20514;-47
2021/09/26 08:01:46;;;;;;;6.03;3.00;;;;;;;;;;5049523;28;20051;-45
2021/09/26 08:04:14;;;;;;;5.50;3.45;;;;;;;;;;5052332;28;20055;-47
2021/09/26 08:06:40;;;;;;;6.57;3.17;;;;;;;;;;5051932;28;20564;-47
2021/09/26 08:09:07;;;;;;;9.93;3.22;;;;;;;;;;5051032;28;20458;-46
2021/09/26 08:11:34;;;;;;;11.25;6.70;;;;;;;;;;5053270;28;20044;-45
2021/09/26 08:14:01;;;;;;;5.72;2.97;;;;;;;;;;5051055;28;20040;-45
2021/09/26 08:16:28;;;;;;;10.80;3.80;;;;;;;;;;5046135;28;20133;-47
2021/09/26 08:18:55;;;;;;;8.40;3.78;;;;;;;;;;5051297;28;20124;-46
2021/09/26 08:21:22;;;;;;;7.50;3.17;;;;;;;;;;5053363;28;20451;-47
2021/09/26 08:23:48;;;;;;;6.03;3.03;;;;;;;;;;5053335;28;20056;-50
2021/09/26 08:26:15;;;;;;;6.10;2.70;;;;;;;;;;5044418;28;20495;-46
2021/09/26 08:28:42;;;;;;;7.85;3.10;;;;;;;;;;5033116;28;20113;-44
2021/09/26 08:31:09;;;;;;;6.93;2.95;;;;;;;;;;5032343;28;20040;-45
2021/09/26 08:33:36;;;;;;;6.00;2.90;;;;;;;;;;5033132;28;20087;-45
2021/09/26 08:36:03;;;;;;;6.40;2.85;;;;;;;;;;5033513;28;20049;-42
2021/09/26 08:38:30;;;;;;;9.07;2.55;;;;;;;;;;5032977;28;20041;-43
2021/09/26 08:40:57;;;;;;;6.70;3.10;;;;;;;;;;5033288;28;20069;-43
2021/09/26 08:43:24;;;;;;;9.63;2.90;;;;;;;;;;5032770;28;20407;-43
2021/09/26 08:45:51;;;;;;;6.00;2.85;;;;;;;;;;5033086;28;20045;-43
2021/09/26 08:48:18;;;;;;;7.18;2.75;;;;;;;;;;5032616;28;20160;-44
2021/09/26 08:50:45;;;;;;;6.95;3.80;;;;;;;;;;5031640;28;20045;-45
2021/09/26 08:53:13;;;;;;;4.70;2.67;;;;;;;;;;5032482;28;20049;-43
2021/09/26 08:55:39;;;;;;;7.35;2.60;;;;;;;;;;5041126;28;20043;-44
2021/09/26 08:58:06;;;;;;;3.88;2.60;;;;;;;;;;5050671;28;20045;-46
2021/09/26 09:00:33;;;;;;;5.28;3.00;;;;;;;;;;5044911;28;20041;-48
2021/09/26 09:03:02;;;;;;;6.85;2.63;;;;;;;;;;5051257;28;20483;-45
2021/09/26 09:05:33;;;;;;;9.82;2.65;;;;;;;;;;5057061;28;20048;-46
2021/09/26 09:08:03;;;;;;;3.78;2.40;;;;;;;;;;5052790;28;20068;-49
2021/09/26 09:10:56;;;;;;;5.82;3.22;;;;;;;;;;5059237;28;20127;-47
2021/09/26 09:13:23;;;;;;;;;;;;;;;;;;5049370;28;20056;-46
2021/09/26 09:15:51;;;;;;;5.90;2.75;;;;;;;;;;5051181;28;19920;-45
2021/09/26 09:18:18;;;;;;;6.95;2.95;;;;;;;;;;5045969;28;20037;-47
2021/09/26 09:20:45;;;;;;;32.08;3.28;;;;;;;;;;5042628;28;20041;-45
2021/09/26 09:23:17;;;;;;;7.63;2.20;;;;;;;;;;5051854;28;20036;-47
2021/09/26 09:25:44;;;;;;;7.15;2.60;;;;;;;;;;5048567;28;20170;-45
2021/09/26 09:28:12;;;;;;;7.07;2.92;;;;;;;;;;5036480;28;20439;-44
2021/09/26 09:30:47;;;;;;;7.15;3.42;;;;;;;;;;5041727;28;20052;-45
2021/09/26 09:33:14;;;;;;;14.23;3.10;;;;;;;;;;5045696;28;20037;-48
2021/09/26 09:35:44;;;;;;;5.20;2.50;;;;;;;;;;5050644;28;20120;-43
2021/09/26 09:38:11;;;;;;;6.10;2.70;;;;;;;;;;5051770;28;20045;-45
2021/09/26 09:40:38;;;;;;;7.55;2.60;;;;;;;;;;5040786;28;20136;-48
2021/09/26 09:43:05;;;;;;;7.20;2.60;;;;;;;;;;5048769;28;20594;-46
2021/09/26 09:45:33;;;;;;;5.88;2.65;;;;;;;;;;5051129;28;20059;-47
2021/09/26 09:48:08;;;;;;;8.32;2.65;;;;;;;;;;5071622;22;20045;-48
2021/09/26 09:51:04;;;;;;;3.72;2.53;;;;;;;;;;5037400;28;20045;-43
2021/09/26 09:53:30;;;;;;;8.68;2.63;;;;;;;;;;5019748;28;20052;-43
2021/09/26 09:56:03;;;;;;;7.78;3.58;;;;;;;;;;5037632;28;20052;-43
2021/09/26 09:58:34;;;;;;;7.40;3.22;;;;;;;;;;5038139;28;20041;-44
2021/09/26 10:01:02;;;;;;;7.80;2.50;;;;;;;;;;5037859;28;20060;-43
2021/09/26 10:03:32;;;;;;;7.22;2.63;;;;;;;;;;5036439;28;20502;-46
2021/09/26 10:05:58;;;;;;;10.80;3.00;;;;;;;;;;5032079;28;20049;-49
2021/09/26 10:08:34;;;;;;;6.47;3.20;;;;;;;;;;5031714;28;20300;-46
2021/09/26 10:11:07;;;;;;;10.82;2.95;;;;;;;;;;5030763;28;20068;-45
2021/09/26 10:13:36;;;;;;;10.27;3.10;;;;;;;;;;5031741;28;20045;-47
2021/09/26 10:16:07;;;;;;;12.25;3.22;;;;;;;;;;5031917;28;20048;-46
2021/09/26 10:18:34;;;;;;;5.47;2.45;;;;;;;;;;5031517;28;20056;-46
2021/09/26 10:21:03;;;;;;;9.70;3.03;;;;;;;;;;5031692;28;20489;-45
2021/09/26 10:23:30;;;;;;;9.55;2.95;;;;;;;;;;5030155;28;20077;-48
2021/09/26 10:25:57;;;;;;;8.05;3.00;;;;;;;;;;5031591;28;20049;-49
2021/09/26 10:28:27;;;;;;;16.27;2.75;;;;;;;;;;5031438;28;20044;-47
2021/09/26 10:30:58;;;;;;;11.77;3.85;;;;;;;;;;5031638;28;20041;-46
2021/09/26 10:33:25;;;;;;;6.65;2.50;;;;;;;;;;5029843;28;20558;-46
2021/09/26 10:35:53;;;;;;;12.13;3.05;;;;;;;;;;5032129;28;20034;-47
2021/09/26 10:38:20;;;;;;;7.55;2.58;;;;;;;;;;5031595;28;20129;-48
2021/09/26 10:40:47;;;;;;;8.60;2.70;;;;;;;;;;5031484;28;20049;-47
2021/09/26 10:43:20;;;;;;;7.65;2.85;;;;;;;;;;5031251;28;20406;-45
2021/09/26 10:45:49;;;;;;;8.05;2.50;;;;;;;;;;5031677;28;20136;-46
2021/09/26 10:48:16;;;;;;;7.47;2.53;;;;;;;;;;5031140;28;20042;-46
2021/09/26 10:50:43;;;;;;;5.57;2.40;;;;;;;;;;5031373;28;20141;-47
2021/09/26 10:53:11;;;;;;;6.18;2.42;;;;;;;;;;5030814;28;20486;-48
2021/09/26 10:55:38;;;;;;;5.80;2.63;;;;;;;;;;5043866;28;20076;-47
2021/09/26 10:58:05;;;;;;;6.85;2.85;;;;;;;;;;5031292;28;20076;-47
2021/09/26 11:00:33;;;;;;;8.23;2.58;;;;;;;;;;5031211;28;20434;-46
2021/09/26 11:03:14;;;;;;;7.55;3.10;;;;;;;;;;5031315;28;20060;-45
2021/09/26 11:05:42;;;;;;;5.35;2.60;;;;;;;;;;5031350;28;20073;-45
2021/09/26 11:08:13;;;;;;;7.68;2.80;;;;;;;;;;5031568;28;20072;-46
2021/09/26 11:10:42;;;;;;;6.32;2.40;;;;;;;;;;5031186;28;20080;-44
2021/09/26 11:13:10;;;;;;;5.40;2.30;;;;;;;;;;5030651;28;20056;-44
2021/09/26 11:15:57;;;;;;;6.55;2.63;;;;;;;;;;5031554;28;20499;-47
2021/09/26 11:18:42;;;;;;;10.02;3.00;;;;;;;;;;5020604;28;20073;-46
2021/09/26 11:21:29;;;;;;;12.15;4.10;;;;;;;;;;5031047;28;20124;-43
2021/09/26 11:23:59;;;;;;;5.32;2.58;;;;;;;;;;5030882;28;20052;-44
2021/09/26 11:26:26;;;;;;;8.68;3.35;;;;;;;;;;5030996;28;20041;-46
2021/09/26 11:28:59;;;;;;;5.60;2.78;;;;;;;;;;5030952;28;20052;-46
2021/09/26 11:31:39;;;;;;;7.97;2.80;;;;;;;;;;5031508;28;20041;-43
2021/09/26 11:34:06;;;;;;;6.65;2.50;;;;;;;;;;5030020;28;20404;-44
2021/09/26 11:36:33;;;;;;;12.07;3.53;;;;;;;;;;5034264;28;20380;-47
2021/09/26 11:39:19;;;;;;;5.93;2.60;;;;;;;;;;5034784;28;20045;-47
2021/09/26 11:41:45;;;;;;;8.05;2.40;;;;;;;;;;5035014;28;20041;-44
2021/09/26 11:44:16;;;;;;;5.88;2.60;;;;;;;;;;5034342;28;20049;-45
2021/09/26 11:46:50;;;;;;;10.30;2.60;;;;;;;;;;5034654;28;20056;-46
2021/09/26 11:49:17;;;;;;;8.07;2.72;;;;;;;;;;5034666;28;20053;-44
2021/09/26 11:51:44;;;;;;;7.70;2.40;;;;;;;;;;5033495;28;20065;-47
2021/09/26 11:54:11;;;;;;;9.18;2.63;;;;;;;;;;5033858;28;20113;-47
2021/09/26 11:56:39;;;;;;;6.32;3.08;;;;;;;;;;5034165;28;20045;-45
2021/09/26 11:59:07;;;;;;;7.40;2.70;;;;;;;;;;5034491;28;20041;-44
2021/09/26 12:01:36;;;;;;;12.25;2.53;;;;;;;;;;5034574;28;20509;-44
2021/09/26 12:04:10;;;;;;;8.25;3.10;;;;;;;;;;5033949;28;20084;-44
2021/09/26 12:06:38;;;;;;;10.70;2.50;;;;;;;;;;5034535;28;20049;-45
2021/09/26 12:09:06;;;;;;;10.45;3.25;;;;;;;;;;5034272;28;20128;-46
2021/09/26 12:11:44;;;;;;;7.38;2.38;;;;;;;;;;5034348;28;20065;-45
2021/09/26 12:14:11;;;;;;;4.95;2.55;;;;;;;;;;5033630;28;20072;-47
2021/09/26 12:16:38;;;;;;;9.27;3.55;;;;;;;;;;5033941;28;20052;-47
2021/09/26 12:19:04;;;;;;;6.07;2.78;;;;;;;;;;5034331;28;20380;-46
2021/09/26 12:21:31;;;;;;;7.38;2.97;;;;;;;;;;5034097;28;20094;-48
2021/09/26 12:23:58;;;;;;;7.13;3.67;;;;;;;;;;5033420;28;20422;-44
2021/09/26 12:26:27;;;;;;;9.60;3.30;;;;;;;;;;5033704;28;20053;-46
2021/09/26 12:29:00;;;;;;;10.93;3.10;;;;;;;;;;5033650;28;20041;-44
2021/09/26 12:31:28;;;;;;;7.05;3.00;;;;;;;;;;5033786;28;20053;-46
2021/09/26 12:33:55;;;;;;;11.07;3.38;;;;;;;;;;5033166;28;20059;-45
2021/09/26 12:36:23;;;;;;;7.47;3.28;;;;;;;;;;5033799;28;20111;-46
2021/09/26 12:38:52;;;;;;;8.00;3.38;;;;;;;;;;5033157;28;20204;-44
2021/09/26 12:41:18;;;;;;;7.72;3.10;;;;;;;;;;5033809;28;20095;-48
2021/09/26 12:43:50;;;;;;;10.98;3.25;;;;;;;;;;5033045;28;20422;-43
2021/09/26 12:46:18;;;;;;;11.18;3.30;;;;;;;;;;5033011;28;20037;-45
2021/09/26 12:48:46;;;;;;;12.35;3.58;;;;;;;;;;5043762;28;20049;-44
2021/09/26 12:51:48;;;;;;;9.50;3.13;;;;;;;;;;5034362;28;20045;-47
2021/09/26 12:54:20;;;;;;;11.65;4.30;;;;;;;;;;4972145;28;20059;-48
2021/09/26 12:56:47;;;;;;;8.73;4.03;;;;;;;;;;5023610;28;20053;-44
2021/09/26 12:59:22;;;;;;;9.82;3.50;;;;;;;;;;5033301;28;20112;-46
2021/09/26 13:02:09;;;;;;;7.57;3.45;;;;;;;;;;5033261;28;20045;-47
2021/09/26 13:04:37;;;;;;;6.78;3.42;;;;;;;;;;5025373;28;20052;-50
2021/09/26 13:07:05;;;;;;;11.43;3.80;;;;;;;;;;5032985;28;20145;-45
2021/09/26 13:09:39;;;;;;;9.02;3.05;;;;;;;;;;5033251;28;20045;-46
2021/09/26 13:12:23;;;;;;;7.15;3.13;;;;;;;;;;5033217;28;20494;-46
2021/09/26 13:15:22;;;;;;;10.52;3.78;;;;;;;;;;5032329;28;20045;-46
2021/09/26 13:17:50;;;;;;;5.72;2.90;;;;;;;;;;5012803;28;20098;-43
2021/09/26 13:20:17;;;;;;;7.28;3.70;;;;;;;;;;5052844;28;20051;-44
2021/09/26 13:22:44;;;;;;;10.63;4.35;;;;;;;;;;5052706;28;20051;-46
2021/09/26 13:25:11;;;;;;;8.07;3.33;;;;;;;;;;5050775;28;20076;-44
2021/09/26 13:27:40;;;;;;;8.05;3.10;;;;;;;;;;5046735;28;20060;-45
2021/09/26 13:30:19;;;;;;;7.75;3.38;;;;;;;;;;5032456;28;20069;-45
2021/09/26 13:32:58;;;;;;;9.35;3.35;;;;;;;;;;5032714;28;20078;-45
2021/09/26 13:35:26;;;;;;;12.85;4.53;;;;;;;;;;5031810;28;20050;-46
2021/09/26 13:38:12;;;;;;;6.68;3.25;;;;;;;;;;5032350;28;20049;-48
2021/09/26 13:40:43;;;;;;;7.60;3.47;;;;;;;;;;5032724;28;20049;-46
2021/09/26 13:43:29;;;;;;;8.73;3.30;;;;;;;;;;5031782;28;20046;-46
2021/09/26 13:45:56;;;;;;;10.52;3.08;;;;;;;;;;5032372;28;20553;-47
2021/09/26 13:48:23;;;;;;;8.25;3.72;;;;;;;;;;5032114;28;20121;-47
2021/09/26 13:50:50;;;;;;;8.93;4.03;;;;;;;;;;5032305;28;20410;-44
2021/09/26 13:53:18;;;;;;;7.95;3.70;;;;;;;;;;5031651;28;20095;-46
2021/09/26 13:55:45;;;;;;;11.23;4.10;;;;;;;;;;5032159;28;20079;-46
2021/09/26 13:58:12;;;;;;;11.07;3.80;;;;;;;;;;5032086;28;20449;-50
2021/09/26 14:00:39;;;;;;;9.80;3.65;;;;;;;;;;5031913;28;20051;-48
2021/09/26 14:03:06;;;;;;;7.97;3.60;;;;;;;;;;5031379;28;20052;-44
2021/09/26 14:05:33;;;;;;;9.07;3.22;;;;;;;;;;5032197;28;20128;-47
2021/09/26 14:08:00;;;;;;;10.40;3.83;;;;;;;;;;5031702;28;20438;-45
2021/09/26 14:10:26;;;;;;;11.48;3.65;;;;;;;;;;5030769;28;20037;-47
2021/09/26 14:12:53;;;;;;;5.50;3.80;;;;;;;;;;5031961;28;20048;-46
2021/09/26 14:15:20;;;;;;;7.50;3.45;;;;;;;;;;5030983;28;20069;-45
2021/09/26 14:17:47;;;;;;;9.60;4.07;;;;;;;;;;5030844;28;20445;-48
2021/09/26 14:20:14;;;;;;;8.60;4.22;;;;;;;;;;5030577;28;20041;-45
2021/09/26 14:22:41;;;;;;;6.93;3.78;;;;;;;;;;5031656;28;20037;-47
2021/09/26 14:25:08;;;;;;;9.10;4.20;;;;;;;;;;5031187;28;20064;-49
2021/09/26 14:27:34;;;;;;;7.88;4.18;;;;;;;;;;5031964;28;20045;-44
2021/09/26 14:30:02;;;;;;;9.93;4.57;;;;;;;;;;5031663;28;20092;-46
2021/09/26 14:32:29;;;;;;;11.23;4.22;;;;;;;;;;5031519;28;20051;-48
2021/09/26 14:34:56;;;;;;;10.20;5.63;;;;;;;;;;5029674;28;20136;-46
2021/09/26 14:37:23;;;;;;;9.57;5.43;;;;;;;;;;5031678;28;20030;-46
2021/09/26 14:39:50;;;;;;;12.02;5.68;;;;;;;;;;5031512;28;20052;-46
2021/09/26 14:42:16;;;;;;;10.05;6.57;;;;;;;;;;5032059;28;20045;-45
2021/09/26 14:44:43;;;;;;;9.95;6.05;;;;;;;;;;5031208;28;20053;-47
2021/09/26 14:47:10;;;;;;;8.88;6.13;;;;;;;;;;5046275;28;20103;-48
2021/09/26 14:49:37;;;;;;;11.45;6.15;;;;;;;;;;5031639;28;20049;-47